Terminal Aerodrome Forecast
Issued by NWS Burlington, VT

Home | Current Version | Previous Version | Text Only | Print | Product List | Glossary On
Versions: 1 2 3 4 5 6 7 8 9 10 11 12 13 14 15 16
000
FTUS41 KBTV 062320
TAFBTV
TAF
KBTV 062320Z 0700/0724 35007KT P6SM SCT070 BKN120
     FM070200 VRB05KT P6SM BKN070
     FM070400 15005KT P6SM BKN045
     FM071300 17007KT P6SM SCT070
     FM072200 18010G17KT P6SM BKN070=

USA.gov is the U.S. government's official web portal to all federal, state and local government web resources and services.